ASA2447 PAJN-PANC
Flight info
| Callsign | ASA2447 |
|---|---|
| Flight time | 1h 33m |
| Altitude | 40000 |
| Route | CHLKT2 ALATY JOH WITTI5 |
| Aircraft | B789/H-SDE1E2E3FGHIJ2J3J4J5M1RWXY/LB1D1 |
Departure
| Time | 2026-05-03 21:12 |
|---|---|
| Airport | Juneau International Airport (PAJN) |
Arrival
| Time | 2026-05-03 22:45 |
|---|---|
| Airport | Ted Stevens Anchorage International Airport (PANC) |
| Time | Latitude | Longitude | Altitude | Speed | Heading |
|---|---|---|---|---|---|
| 2026-05-03 21:09 | 58.35773 | -134.58050 | 40 ft | 0 kts | 277° |
| 2026-05-03 21:10 | 58.35758 | -134.58248 | 40 ft | 29 kts | 248° |
| 2026-05-03 21:10 | 58.35726 | -134.58592 | 38 ft | 23 kts | 289° |
| 2026-05-03 21:10 | 58.35782 | -134.58888 | 40 ft | 24 kts | 285° |
| 2026-05-03 21:11 | 58.35846 | -134.59338 | 41 ft | 51 kts | 284° |
| 2026-05-03 21:11 | 58.35824 | -134.59692 | 41 ft | 12 kts | 196° |
| 2026-05-03 21:11 | 58.35769 | -134.59578 | 42 ft | 34 kts | 108° |
| 2026-05-03 21:11 | 58.35638 | -134.58637 | 38 ft | 111 kts | 105° |
| 2026-05-03 21:12 | 58.35390 | -134.56860 | 259 ft | 154 kts | 102° |
| 2026-05-03 21:12 | 58.35080 | -134.54704 | 1085 ft | 180 kts | 107° |
| 2026-05-03 21:12 | 58.34641 | -134.52197 | 1708 ft | 224 kts | 115° |
| 2026-05-03 21:12 | 58.33578 | -134.49918 | 1521 ft | 230 kts | 143° |
| 2026-05-03 21:13 | 58.32283 | -134.47983 | 1370 ft | 252 kts | 138° |
| 2026-05-03 21:13 | 58.30915 | -134.45577 | 1466 ft | 271 kts | 134° |
| 2026-05-03 21:13 | 58.29678 | -134.42893 | 1966 ft | 283 kts | 128° |
| 2026-05-03 21:13 | 58.28279 | -134.39915 | 2570 ft | 312 kts | 133° |
| 2026-05-03 21:14 | 58.26770 | -134.36896 | 3118 ft | 322 kts | 134° |
| 2026-05-03 21:14 | 58.25232 | -134.33726 | 3716 ft | 325 kts | 133° |
| 2026-05-03 21:14 | 58.23561 | -134.30797 | 4333 ft | 334 kts | 149° |
| 2026-05-03 21:14 | 58.21416 | -134.29159 | 4939 ft | 334 kts | 170° |
| 2026-05-03 21:15 | 58.19066 | -134.29114 | 5555 ft | 336 kts | 191° |
| 2026-05-03 21:15 | 58.16906 | -134.30667 | 6140 ft | 335 kts | 214° |
| 2026-05-03 21:15 | 58.15191 | -134.33548 | 6672 ft | 334 kts | 232° |
| 2026-05-03 21:15 | 58.14112 | -134.37437 | 6525 ft | 334 kts | 255° |
| 2026-05-03 21:16 | 58.13877 | -134.41776 | 6510 ft | 327 kts | 275° |
| 2026-05-03 21:16 | 58.14433 | -134.45835 | 7017 ft | 316 kts | 289° |
| 2026-05-03 21:16 | 58.15246 | -134.49852 | 7617 ft | 331 kts | 291° |
| 2026-05-03 21:16 | 58.16110 | -134.53811 | 8205 ft | 326 kts | 291° |
| 2026-05-03 21:17 | 58.16972 | -134.57808 | 8797 ft | 327 kts | 291° |
| 2026-05-03 21:17 | 58.17525 | -134.60458 | 9205 ft | 327 kts | 290° |
| 2026-05-03 21:17 | 58.18865 | -134.65629 | 10013 ft | 330 kts | 303° |
| 2026-05-03 21:17 | 58.20407 | -134.68864 | 10590 ft | 334 kts | 314° |
| 2026-05-03 21:18 | 58.22115 | -134.71931 | 11171 ft | 340 kts | 313° |
| 2026-05-03 21:18 | 58.23827 | -134.75037 | 11752 ft | 345 kts | 313° |
| 2026-05-03 21:18 | 58.25587 | -134.78215 | 12338 ft | 349 kts | 313° |
| 2026-05-03 21:18 | 58.27352 | -134.81394 | 12960 ft | 354 kts | 313° |
| 2026-05-03 21:19 | 58.29151 | -134.84651 | 13605 ft | 359 kts | 313° |
| 2026-05-03 21:19 | 58.30968 | -134.87949 | 14214 ft | 363 kts | 313° |
| 2026-05-03 21:19 | 58.32806 | -134.91286 | 14799 ft | 366 kts | 313° |
| 2026-05-03 21:19 | 58.34646 | -134.94630 | 15467 ft | 365 kts | 313° |
| 2026-05-03 21:20 | 58.36494 | -134.97998 | 16212 ft | 371 kts | 313° |
| 2026-05-03 21:20 | 58.38364 | -135.01411 | 16972 ft | 373 kts | 313° |
| 2026-05-03 21:20 | 58.40245 | -135.04847 | 17378 ft | 379 kts | 313° |
| 2026-05-03 21:20 | 58.42123 | -135.08279 | 17888 ft | 367 kts | 312° |
| 2026-05-03 21:21 | 58.43782 | -135.11979 | 18632 ft | 370 kts | 302° |
| 2026-05-03 21:21 | 58.45196 | -135.16133 | 19299 ft | 377 kts | 300° |
| 2026-05-03 21:21 | 58.46620 | -135.20373 | 19964 ft | 383 kts | 300° |
| 2026-05-03 21:21 | 58.48040 | -135.24620 | 20633 ft | 385 kts | 300° |
| 2026-05-03 21:22 | 58.49508 | -135.29012 | 21323 ft | 388 kts | 300° |
| 2026-05-03 21:22 | 58.50970 | -135.33373 | 22042 ft | 390 kts | 300° |
| 2026-05-03 21:22 | 58.52428 | -135.37774 | 22770 ft | 394 kts | 299° |
| 2026-05-03 21:22 | 58.53905 | -135.42227 | 23516 ft | 398 kts | 299° |
| 2026-05-03 21:23 | 58.55399 | -135.46705 | 24200 ft | 398 kts | 300° |
| 2026-05-03 21:23 | 58.56887 | -135.51197 | 24797 ft | 401 kts | 299° |
| 2026-05-03 21:23 | 58.58380 | -135.55739 | 25373 ft | 404 kts | 299° |
| 2026-05-03 21:23 | 58.59882 | -135.60287 | 25956 ft | 404 kts | 299° |
| 2026-05-03 21:24 | 58.61386 | -135.64846 | 26598 ft | 404 kts | 298° |
| 2026-05-03 21:24 | 58.62887 | -135.69414 | 27215 ft | 405 kts | 298° |
| 2026-05-03 21:24 | 58.64386 | -135.73985 | 27853 ft | 404 kts | 298° |
| 2026-05-03 21:24 | 58.65878 | -135.78548 | 28450 ft | 403 kts | 298° |
| 2026-05-03 21:25 | 58.67367 | -135.83101 | 29025 ft | 402 kts | 298° |
| 2026-05-03 21:25 | 58.68848 | -135.87648 | 29605 ft | 401 kts | 298° |
| 2026-05-03 21:25 | 58.70328 | -135.92199 | 30065 ft | 402 kts | 298° |
| 2026-05-03 21:25 | 58.71814 | -135.96771 | 30484 ft | 403 kts | 298° |
| 2026-05-03 21:26 | 58.73297 | -136.01342 | 30866 ft | 402 kts | 297° |
| 2026-05-03 21:26 | 58.74772 | -136.05903 | 31237 ft | 401 kts | 297° |
| 2026-05-03 21:26 | 58.76245 | -136.10467 | 31615 ft | 401 kts | 297° |
| 2026-05-03 21:26 | 58.77719 | -136.15038 | 32021 ft | 401 kts | 297° |
| 2026-05-03 21:27 | 58.79184 | -136.19585 | 32382 ft | 399 kts | 297° |
| 2026-05-03 21:27 | 58.80644 | -136.24131 | 32762 ft | 398 kts | 296° |
| 2026-05-03 21:27 | 58.82100 | -136.28685 | 33190 ft | 394 kts | 296° |
| 2026-05-03 21:27 | 58.83516 | -136.33094 | 33391 ft | 377 kts | 296° |
| 2026-05-03 21:28 | 58.86189 | -136.41493 | 33743 ft | 367 kts | 296° |
| 2026-05-03 21:28 | 58.87524 | -136.45687 | 34100 ft | 367 kts | 295° |
| 2026-05-03 21:28 | 58.88866 | -136.49913 | 34469 ft | 368 kts | 295° |
| 2026-05-03 21:29 | 58.90193 | -136.54098 | 34825 ft | 367 kts | 296° |
| 2026-05-03 21:29 | 58.91533 | -136.58321 | 35165 ft | 365 kts | 295° |
| 2026-05-03 21:29 | 58.92852 | -136.62506 | 35504 ft | 364 kts | 295° |
| 2026-05-03 21:29 | 58.94168 | -136.66673 | 35881 ft | 361 kts | 295° |
| 2026-05-03 21:30 | 58.95471 | -136.70816 | 36237 ft | 360 kts | 294° |
| 2026-05-03 21:30 | 58.96764 | -136.74942 | 36595 ft | 357 kts | 294° |
| 2026-05-03 21:30 | 58.98052 | -136.79042 | 36949 ft | 355 kts | 295° |
| 2026-05-03 21:30 | 58.99330 | -136.83112 | 37305 ft | 352 kts | 295° |
| 2026-05-03 21:31 | 59.00587 | -136.87133 | 37691 ft | 345 kts | 294° |
| 2026-05-03 21:31 | 59.01822 | -136.91091 | 38055 ft | 341 kts | 294° |
| 2026-05-03 21:31 | 59.03046 | -136.95028 | 38281 ft | 339 kts | 295° |
| 2026-05-03 21:31 | 59.04259 | -136.98927 | 38614 ft | 337 kts | 294° |
| 2026-05-03 21:32 | 59.05482 | -137.02863 | 38916 ft | 335 kts | 294° |
| 2026-05-03 21:32 | 59.06671 | -137.06698 | 39139 ft | 333 kts | 294° |
| 2026-05-03 21:32 | 59.07871 | -137.10579 | 39269 ft | 332 kts | 294° |
| 2026-05-03 21:32 | 59.09057 | -137.14420 | 39421 ft | 331 kts | 294° |
| 2026-05-03 21:33 | 59.10241 | -137.18253 | 39534 ft | 329 kts | 294° |
| 2026-05-03 21:33 | 59.11415 | -137.22069 | 39655 ft | 328 kts | 294° |
| 2026-05-03 21:33 | 59.12585 | -137.25878 | 39770 ft | 328 kts | 294° |
| 2026-05-03 21:33 | 59.13755 | -137.29688 | 39884 ft | 328 kts | 294° |
| 2026-05-03 21:34 | 59.14924 | -137.33503 | 39986 ft | 328 kts | 294° |
| 2026-05-03 21:34 | 59.16095 | -137.37332 | 40104 ft | 328 kts | 294° |
| 2026-05-03 21:34 | 59.17271 | -137.41179 | 40231 ft | 327 kts | 294° |
| 2026-05-03 21:34 | 59.18432 | -137.44988 | 40338 ft | 326 kts | 294° |
| 2026-05-03 21:35 | 59.20760 | -137.52650 | 40343 ft | 332 kts | 295° |
| 2026-05-03 21:35 | 59.23120 | -137.60429 | 40345 ft | 336 kts | 295° |
| 2026-05-03 21:36 | 59.25512 | -137.68354 | 40342 ft | 341 kts | 295° |
| 2026-05-03 21:36 | 59.27933 | -137.76372 | 40398 ft | 346 kts | 295° |
| 2026-05-03 21:37 | 59.30384 | -137.84574 | 40394 ft | 352 kts | 294° |
| 2026-05-03 21:37 | 59.32884 | -137.92914 | 40396 ft | 358 kts | 294° |
| 2026-05-03 21:38 | 59.35413 | -138.01418 | 40384 ft | 364 kts | 294° |
| 2026-05-03 21:38 | 59.37985 | -138.10072 | 40388 ft | 371 kts | 294° |
| 2026-05-03 21:39 | 59.40601 | -138.18926 | 40404 ft | 378 kts | 294° |
| 2026-05-03 21:39 | 59.42523 | -138.26639 | 40442 ft | 379 kts | 285° |
| 2026-05-03 21:40 | 59.44152 | -138.36567 | 40405 ft | 385 kts | 284° |
| 2026-05-03 21:40 | 59.45797 | -138.46695 | 40400 ft | 392 kts | 283° |
| 2026-05-03 21:41 | 59.47453 | -138.57014 | 40401 ft | 399 kts | 283° |
| 2026-05-03 21:41 | 59.49136 | -138.67527 | 40399 ft | 404 kts | 283° |
| 2026-05-03 21:42 | 59.50810 | -138.78063 | 40392 ft | 404 kts | 283° |
| 2026-05-03 21:42 | 59.52477 | -138.88618 | 40383 ft | 403 kts | 283° |
| 2026-05-03 21:43 | 59.54132 | -138.99164 | 40395 ft | 404 kts | 283° |
| 2026-05-03 21:43 | 59.55787 | -139.09771 | 40373 ft | 404 kts | 283° |
| 2026-05-03 21:44 | 59.57431 | -139.20375 | 40374 ft | 404 kts | 283° |
| 2026-05-03 21:44 | 59.59065 | -139.30973 | 40366 ft | 403 kts | 283° |
| 2026-05-03 21:45 | 59.60684 | -139.41551 | 40356 ft | 402 kts | 282° |
| 2026-05-03 21:45 | 59.62296 | -139.52138 | 40352 ft | 402 kts | 282° |
| 2026-05-03 21:46 | 59.63901 | -139.62755 | 40357 ft | 403 kts | 282° |
| 2026-05-03 21:46 | 59.65498 | -139.73375 | 40361 ft | 402 kts | 282° |
| 2026-05-03 21:47 | 59.67075 | -139.83937 | 40366 ft | 400 kts | 281° |
| 2026-05-03 21:47 | 59.68646 | -139.94527 | 40365 ft | 401 kts | 281° |
| 2026-05-03 21:48 | 59.70207 | -140.05117 | 40362 ft | 401 kts | 281° |
| 2026-05-03 21:48 | 59.71764 | -140.15742 | 40349 ft | 401 kts | 281° |
| 2026-05-03 21:49 | 59.73312 | -140.26371 | 40365 ft | 402 kts | 281° |
| 2026-05-03 21:49 | 59.74853 | -140.37034 | 40363 ft | 402 kts | 281° |
| 2026-05-03 21:50 | 59.76383 | -140.47682 | 40360 ft | 401 kts | 281° |
| 2026-05-03 21:50 | 59.77900 | -140.58313 | 40337 ft | 400 kts | 281° |
| 2026-05-03 21:51 | 59.79408 | -140.68947 | 40352 ft | 401 kts | 280° |
| 2026-05-03 21:51 | 59.80914 | -140.79641 | 40339 ft | 403 kts | 280° |
| 2026-05-03 21:52 | 59.82418 | -140.90385 | 40338 ft | 403 kts | 280° |
| 2026-05-03 21:52 | 59.83911 | -141.01126 | 40335 ft | 403 kts | 280° |
| 2026-05-03 21:53 | 59.85395 | -141.11877 | 40328 ft | 402 kts | 280° |
| 2026-05-03 21:53 | 59.86865 | -141.22599 | 40327 ft | 402 kts | 279° |
| 2026-05-03 21:54 | 59.88328 | -141.33340 | 40332 ft | 401 kts | 279° |
| 2026-05-03 21:54 | 59.89777 | -141.44060 | 40329 ft | 401 kts | 279° |
| 2026-05-03 21:55 | 59.91216 | -141.54779 | 40319 ft | 402 kts | 279° |
| 2026-05-03 21:55 | 59.92660 | -141.65604 | 40327 ft | 406 kts | 279° |
| 2026-05-03 21:56 | 59.94059 | -141.76160 | 40323 ft | 406 kts | 278° |
| 2026-05-03 21:56 | 59.95492 | -141.87054 | 40313 ft | 405 kts | 278° |
| 2026-05-03 21:57 | 59.96911 | -141.97921 | 40312 ft | 405 kts | 278° |
| 2026-05-03 21:57 | 59.98323 | -142.08809 | 40311 ft | 404 kts | 278° |
| 2026-05-03 21:58 | 59.99712 | -142.19602 | 40290 ft | 404 kts | 278° |
| 2026-05-03 21:58 | 60.01111 | -142.30547 | 40293 ft | 406 kts | 278° |
| 2026-05-03 21:59 | 60.02504 | -142.41532 | 40290 ft | 408 kts | 278° |
| 2026-05-03 21:59 | 60.03891 | -142.52533 | 40295 ft | 408 kts | 278° |
| 2026-05-03 22:00 | 60.05268 | -142.63555 | 40287 ft | 408 kts | 278° |
| 2026-05-03 22:00 | 60.06634 | -142.74559 | 40284 ft | 407 kts | 277° |
| 2026-05-03 22:01 | 60.07990 | -142.85578 | 40286 ft | 407 kts | 277° |
| 2026-05-03 22:01 | 60.09344 | -142.96655 | 40279 ft | 408 kts | 277° |
| 2026-05-03 22:02 | 60.10686 | -143.07736 | 40277 ft | 410 kts | 277° |
| 2026-05-03 22:02 | 60.12026 | -143.18861 | 40281 ft | 411 kts | 277° |
| 2026-05-03 22:03 | 60.13365 | -143.30080 | 40285 ft | 411 kts | 277° |
| 2026-05-03 22:03 | 60.14676 | -143.41144 | 40286 ft | 410 kts | 277° |
| 2026-05-03 22:04 | 60.15995 | -143.52370 | 40285 ft | 410 kts | 277° |
| 2026-05-03 22:04 | 60.17295 | -143.63516 | 40275 ft | 410 kts | 277° |
| 2026-05-03 22:05 | 60.18582 | -143.74653 | 40270 ft | 409 kts | 277° |
| 2026-05-03 22:05 | 60.19859 | -143.85786 | 40267 ft | 408 kts | 276° |
| 2026-05-03 22:06 | 60.21125 | -143.96908 | 40263 ft | 407 kts | 276° |
| 2026-05-03 22:06 | 60.22387 | -144.08092 | 40262 ft | 408 kts | 276° |
| 2026-05-03 22:07 | 60.23633 | -144.19223 | 40262 ft | 408 kts | 276° |
| 2026-05-03 22:07 | 60.24870 | -144.30362 | 40274 ft | 408 kts | 276° |
| 2026-05-03 22:08 | 60.26104 | -144.41578 | 40271 ft | 412 kts | 276° |
| 2026-05-03 22:08 | 60.27342 | -144.52906 | 40272 ft | 411 kts | 276° |
| 2026-05-03 22:09 | 60.28365 | -144.62362 | 40273 ft | 412 kts | 276° |
| 2026-05-03 22:10 | 60.30179 | -144.79276 | 40276 ft | 411 kts | 276° |
| 2026-05-03 22:10 | 60.31382 | -144.90616 | 40276 ft | 411 kts | 276° |
| 2026-05-03 22:11 | 60.32567 | -145.01880 | 40272 ft | 410 kts | 275° |
| 2026-05-03 22:11 | 60.33744 | -145.13195 | 40261 ft | 413 kts | 275° |
| 2026-05-03 22:12 | 60.34918 | -145.24541 | 40266 ft | 413 kts | 275° |
| 2026-05-03 22:12 | 60.36081 | -145.35905 | 40268 ft | 413 kts | 275° |
| 2026-05-03 22:13 | 60.37233 | -145.47261 | 40267 ft | 413 kts | 275° |
| 2026-05-03 22:13 | 60.38377 | -145.58646 | 40266 ft | 413 kts | 275° |
| 2026-05-03 22:14 | 60.39512 | -145.70039 | 40248 ft | 413 kts | 274° |
| 2026-05-03 22:14 | 60.40638 | -145.81461 | 40241 ft | 415 kts | 274° |
| 2026-05-03 22:15 | 60.41768 | -145.93012 | 40243 ft | 415 kts | 274° |
| 2026-05-03 22:15 | 60.42878 | -146.04485 | 40249 ft | 415 kts | 274° |
| 2026-05-03 22:16 | 60.43975 | -146.15918 | 40248 ft | 415 kts | 274° |
| 2026-05-03 22:16 | 60.45072 | -146.27469 | 40188 ft | 417 kts | 274° |
| 2026-05-03 22:16 | 60.45616 | -146.33263 | 39838 ft | 420 kts | 274° |
| 2026-05-03 22:17 | 60.46155 | -146.38976 | 39505 ft | 415 kts | 274° |
| 2026-05-03 22:17 | 60.46696 | -146.44734 | 39197 ft | 409 kts | 273° |
| 2026-05-03 22:17 | 60.47218 | -146.50362 | 38843 ft | 403 kts | 272° |
| 2026-05-03 22:17 | 60.47729 | -146.55920 | 38433 ft | 398 kts | 272° |
| 2026-05-03 22:18 | 60.48359 | -146.61385 | 38030 ft | 400 kts | 278° |
| 2026-05-03 22:18 | 60.49238 | -146.66743 | 37554 ft | 401 kts | 278° |
| 2026-05-03 22:18 | 60.50127 | -146.72152 | 36897 ft | 405 kts | 278° |
| 2026-05-03 22:18 | 60.51017 | -146.77585 | 36229 ft | 408 kts | 278° |
| 2026-05-03 22:19 | 60.51920 | -146.83053 | 35566 ft | 409 kts | 278° |
| 2026-05-03 22:19 | 60.52814 | -146.88468 | 34908 ft | 409 kts | 277° |
| 2026-05-03 22:19 | 60.53721 | -146.94004 | 34248 ft | 408 kts | 277° |
| 2026-05-03 22:19 | 60.54610 | -146.99482 | 33515 ft | 408 kts | 277° |
| 2026-05-03 22:20 | 60.55502 | -147.04977 | 32797 ft | 410 kts | 278° |
| 2026-05-03 22:20 | 60.56396 | -147.10498 | 32152 ft | 417 kts | 278° |
| 2026-05-03 22:20 | 60.57296 | -147.16088 | 31498 ft | 427 kts | 278° |
| 2026-05-03 22:20 | 60.58245 | -147.21953 | 30822 ft | 429 kts | 279° |
| 2026-05-03 22:21 | 60.59177 | -147.27714 | 30157 ft | 428 kts | 279° |
| 2026-05-03 22:21 | 60.60102 | -147.33486 | 29382 ft | 426 kts | 279° |
| 2026-05-03 22:21 | 60.61011 | -147.39199 | 28634 ft | 424 kts | 279° |
| 2026-05-03 22:21 | 60.61915 | -147.44890 | 27906 ft | 422 kts | 279° |
| 2026-05-03 22:22 | 60.62817 | -147.50567 | 27179 ft | 419 kts | 279° |
| 2026-05-03 22:22 | 60.63717 | -147.56264 | 26461 ft | 417 kts | 280° |
| 2026-05-03 22:22 | 60.64581 | -147.61713 | 25221 ft | 403 kts | 280° |
| 2026-05-03 22:22 | 60.65439 | -147.67217 | 23455 ft | 409 kts | 280° |
| 2026-05-03 22:23 | 60.66279 | -147.72560 | 23035 ft | 389 kts | 280° |
| 2026-05-03 22:23 | 60.67104 | -147.77863 | 22685 ft | 393 kts | 279° |
| 2026-05-03 22:23 | 60.67926 | -147.83177 | 22297 ft | 392 kts | 280° |
| 2026-05-03 22:23 | 60.68750 | -147.88473 | 21918 ft | 391 kts | 280° |
| 2026-05-03 22:24 | 60.69568 | -147.93743 | 21536 ft | 389 kts | 280° |
| 2026-05-03 22:24 | 60.70377 | -147.98994 | 21160 ft | 386 kts | 280° |
| 2026-05-03 22:24 | 60.71190 | -148.04301 | 20588 ft | 388 kts | 280° |
| 2026-05-03 22:24 | 60.71994 | -148.09557 | 19903 ft | 388 kts | 280° |
| 2026-05-03 22:25 | 60.72798 | -148.14797 | 19247 ft | 386 kts | 280° |
| 2026-05-03 22:25 | 60.73590 | -148.19991 | 18591 ft | 382 kts | 280° |
| 2026-05-03 22:25 | 60.74373 | -148.25162 | 17850 ft | 379 kts | 280° |
| 2026-05-03 22:25 | 60.75141 | -148.30289 | 17118 ft | 377 kts | 281° |
| 2026-05-03 22:26 | 60.75907 | -148.35418 | 16392 ft | 374 kts | 281° |
| 2026-05-03 22:26 | 60.76663 | -148.40488 | 15722 ft | 372 kts | 281° |
| 2026-05-03 22:26 | 60.77413 | -148.45532 | 15031 ft | 370 kts | 281° |
| 2026-05-03 22:26 | 60.78158 | -148.50555 | 14361 ft | 368 kts | 281° |
| 2026-05-03 22:27 | 60.78897 | -148.55564 | 13646 ft | 367 kts | 281° |
| 2026-05-03 22:27 | 60.79632 | -148.60547 | 12902 ft | 365 kts | 281° |
| 2026-05-03 22:27 | 60.80362 | -148.65521 | 12190 ft | 363 kts | 282° |
| 2026-05-03 22:27 | 60.81078 | -148.70396 | 12037 ft | 352 kts | 282° |
| 2026-05-03 22:28 | 60.81794 | -148.75303 | 12036 ft | 359 kts | 282° |
| 2026-05-03 22:28 | 60.82506 | -148.80217 | 12034 ft | 359 kts | 282° |
| 2026-05-03 22:28 | 60.83216 | -148.85109 | 12040 ft | 358 kts | 282° |
| 2026-05-03 22:28 | 60.83932 | -148.90042 | 12038 ft | 363 kts | 282° |
| 2026-05-03 22:29 | 60.84641 | -148.94933 | 12040 ft | 361 kts | 282° |
| 2026-05-03 22:29 | 60.85351 | -148.99869 | 12032 ft | 361 kts | 282° |
| 2026-05-03 22:29 | 60.86057 | -149.04801 | 12035 ft | 360 kts | 282° |
| 2026-05-03 22:29 | 60.86762 | -149.09760 | 12037 ft | 365 kts | 282° |
| 2026-05-03 22:30 | 60.87479 | -149.14773 | 12026 ft | 366 kts | 282° |
| 2026-05-03 22:30 | 60.88192 | -149.19751 | 12020 ft | 364 kts | 282° |
| 2026-05-03 22:30 | 60.89108 | -149.24630 | 12021 ft | 368 kts | 292° |
| 2026-05-03 22:30 | 60.90225 | -149.29421 | 12017 ft | 366 kts | 291° |
| 2026-05-03 22:31 | 60.91282 | -149.34116 | 12017 ft | 367 kts | 291° |
| 2026-05-03 22:31 | 60.92356 | -149.38864 | 12020 ft | 367 kts | 291° |
| 2026-05-03 22:31 | 60.93436 | -149.43592 | 12013 ft | 367 kts | 291° |
| 2026-05-03 22:31 | 60.94516 | -149.48337 | 11923 ft | 369 kts | 291° |
| 2026-05-03 22:32 | 60.95613 | -149.53208 | 11204 ft | 375 kts | 291° |
| 2026-05-03 22:32 | 60.96694 | -149.57997 | 10515 ft | 372 kts | 292° |
| 2026-05-03 22:32 | 60.97796 | -149.62880 | 9781 ft | 370 kts | 292° |
| 2026-05-03 22:32 | 60.98872 | -149.67672 | 8925 ft | 364 kts | 293° |
| 2026-05-03 22:33 | 60.99918 | -149.72250 | 8127 ft | 346 kts | 297° |
| 2026-05-03 22:33 | 61.01402 | -149.76009 | 7900 ft | 339 kts | 317° |
| 2026-05-03 22:33 | 61.03150 | -149.79447 | 7991 ft | 350 kts | 316° |
| 2026-05-03 22:33 | 61.04918 | -149.82884 | 7997 ft | 347 kts | 317° |
| 2026-05-03 22:34 | 61.06703 | -149.86278 | 7526 ft | 352 kts | 317° |
| 2026-05-03 22:34 | 61.08502 | -149.89735 | 6788 ft | 352 kts | 315° |
| 2026-05-03 22:34 | 61.09900 | -149.93833 | 6023 ft | 352 kts | 293° |
| 2026-05-03 22:34 | 61.10471 | -149.98708 | 5269 ft | 350 kts | 272° |
| 2026-05-03 22:35 | 61.10456 | -150.03615 | 4516 ft | 329 kts | 269° |
| 2026-05-03 22:35 | 61.10388 | -150.08207 | 3731 ft | 311 kts | 268° |
| 2026-05-03 22:35 | 61.10316 | -150.12559 | 3041 ft | 295 kts | 269° |
| 2026-05-03 22:35 | 61.10269 | -150.16686 | 2975 ft | 280 kts | 269° |
| 2026-05-03 22:36 | 61.10225 | -150.20744 | 2982 ft | 284 kts | 269° |
| 2026-05-03 22:36 | 61.10173 | -150.24806 | 2980 ft | 283 kts | 269° |
| 2026-05-03 22:36 | 61.10118 | -150.28878 | 2983 ft | 282 kts | 269° |
| 2026-05-03 22:36 | 61.10067 | -150.32712 | 2972 ft | 254 kts | 269° |
| 2026-05-03 22:37 | 61.10041 | -150.36310 | 2973 ft | 247 kts | 270° |
| 2026-05-03 22:37 | 61.10016 | -150.39824 | 2976 ft | 243 kts | 270° |
| 2026-05-03 22:37 | 61.09984 | -150.43359 | 2972 ft | 250 kts | 269° |
| 2026-05-03 22:37 | 61.09948 | -150.46907 | 2972 ft | 249 kts | 269° |
| 2026-05-03 22:38 | 61.09911 | -150.50575 | 2966 ft | 249 kts | 269° |
| 2026-05-03 22:38 | 61.10156 | -150.54014 | 2879 ft | 237 kts | 301° |
| 2026-05-03 22:38 | 61.11285 | -150.56243 | 2772 ft | 221 kts | 338° |
| 2026-05-03 22:38 | 61.12710 | -150.57164 | 2880 ft | 214 kts | 1° |
| 2026-05-03 22:39 | 61.14164 | -150.56777 | 2976 ft | 211 kts | 22° |
| 2026-05-03 22:39 | 61.15400 | -150.55174 | 2995 ft | 211 kts | 45° |
| 2026-05-03 22:39 | 61.16191 | -150.52653 | 2992 ft | 210 kts | 70° |
| 2026-05-03 22:39 | 61.16449 | -150.49744 | 3004 ft | 208 kts | 83° |
| 2026-05-03 22:40 | 61.16759 | -150.46806 | 3000 ft | 207 kts | 81° |
| 2026-05-03 22:40 | 61.16686 | -150.43951 | 3016 ft | 187 kts | 92° |
| 2026-05-03 22:40 | 61.16727 | -150.41399 | 2998 ft | 173 kts | 88° |
| 2026-05-03 22:40 | 61.16725 | -150.38942 | 3001 ft | 169 kts | 89° |
| 2026-05-03 22:41 | 61.16733 | -150.37297 | 2993 ft | 169 kts | 88° |
| 2026-05-03 22:41 | 61.16737 | -150.34855 | 3013 ft | 168 kts | 89° |
| 2026-05-03 22:41 | 61.16739 | -150.32523 | 2927 ft | 160 kts | 89° |
| 2026-05-03 22:41 | 61.16740 | -150.30225 | 2714 ft | 157 kts | 89° |
| 2026-05-03 22:42 | 61.16742 | -150.28026 | 2491 ft | 150 kts | 88° |
| 2026-05-03 22:42 | 61.16748 | -150.25873 | 2280 ft | 149 kts | 88° |
| 2026-05-03 22:42 | 61.16753 | -150.23723 | 2089 ft | 151 kts | 88° |
| 2026-05-03 22:42 | 61.16755 | -150.21530 | 1879 ft | 153 kts | 88° |
| 2026-05-03 22:43 | 61.16759 | -150.19328 | 1660 ft | 153 kts | 88° |
| 2026-05-03 22:43 | 61.16761 | -150.17111 | 1448 ft | 154 kts | 88° |
| 2026-05-03 22:43 | 61.16765 | -150.14904 | 1231 ft | 153 kts | 88° |
| 2026-05-03 22:43 | 61.16767 | -150.12697 | 1010 ft | 153 kts | 88° |
| 2026-05-03 22:44 | 61.16770 | -150.10495 | 788 ft | 152 kts | 88° |
| 2026-05-03 22:44 | 61.16770 | -150.08300 | 582 ft | 152 kts | 88° |
| 2026-05-03 22:44 | 61.16775 | -150.06105 | 345 ft | 154 kts | 89° |
| 2026-05-03 22:44 | 61.16777 | -150.03883 | 145 ft | 148 kts | 90° |
| 2026-05-03 22:45 | 61.16787 | -150.02135 | 126 ft | 98 kts | 90° |
| 2026-05-03 22:45 | 61.16786 | -150.00915 | 127 ft | 55 kts | 90° |
| 2026-05-03 22:45 | 61.16787 | -150.00254 | 126 ft | 43 kts | 90° |
| 2026-05-03 22:45 | 61.16813 | -149.99751 | 124 ft | 22 kts | 73° |
| 2026-05-03 22:46 | 61.16866 | -149.99497 | 122 ft | 16 kts | 58° |
| 2026-05-03 22:46 | 61.16946 | -149.99358 | 121 ft | 15 kts | 31° |
| 2026-05-03 22:46 | 61.17022 | -149.99245 | 122 ft | 13 kts | 37° |
| 2026-05-03 22:46 | 61.17097 | -149.99129 | 121 ft | 14 kts | 38° |
| 2026-05-03 22:47 | 61.17163 | -149.98991 | 121 ft | 13 kts | 50° |
| 2026-05-03 22:47 | 61.17225 | -149.98845 | 123 ft | 14 kts | 44° |
| 2026-05-03 22:47 | 61.17301 | -149.98728 | 121 ft | 14 kts | 34° |
| 2026-05-03 22:47 | 61.17382 | -149.98611 | 121 ft | 14 kts | 35° |
| 2026-05-03 22:48 | 61.17424 | -149.98499 | 122 ft | 8 kts | 72° |
| 2026-05-03 22:48 | 61.17431 | -149.98417 | 126 ft | 0 kts | 82° |